ADDS METAR Data INFO
IDs: Format: Raw Decoded Include TAF

Data at: 0936 UTC 25 Nov 2017

KFBR 250915Z AUTO 26013KT 10SM CLR 03/00 A3026 RMK AO2 T00320000
KFBR 250855Z AUTO 26012KT 10SM CLR 03/00 A3025 RMK AO2 T00310000
KFBR 250835Z AUTO 26013KT 10SM CLR 04/00 A3025 RMK AO2 T00350000
KFBR 250815Z AUTO 26014KT 10SM CLR 04/00 A3025 RMK AO2 T00360000
KFBR 250755Z AUTO 26015G20KT 10SM CLR 04/00 A3024 RMK AO2 T00350001
KFBR 250735Z AUTO 27009KT 10SM CLR 03/00 A3023 RMK AO2 T00300001
KFBR 250715Z AUTO 27009KT 10SM CLR 03/00 A3023 RMK AO2 T00270002
KFBR 250655Z AUTO 28007KT 10SM CLR 03/00 A3022 RMK AO2 T00280002
KFBR 250635Z AUTO 26007KT 10SM SCT049 03/00 A3022 RMK AO2 T00290000
KFBR 250615Z AUTO 27008KT 10SM SCT049 04/00 A3022 RMK AO2 T00350000
KFBR 250555Z AUTO 26007KT 10SM CLR 03/00 A3022 RMK AO2 T00280000 10056 20014 401190014
KFBR 250535Z AUTO 25008KT 10SM CLR 02/00 A3022 RMK AO2 T00230000
KFBR 250515Z AUTO 24008KT 10SM CLR 02/01 A3019 RMK AO2 T00200006
KFBR 250455Z AUTO 26007KT 10SM CLR 02/01 A3019 RMK AO2 T00180007
KFBR 250435Z AUTO 26008KT 10SM CLR 02/01 A3019 RMK AO2 T00220006
KFBR 250415Z AUTO 23007KT 10SM CLR 03/01 A3019 RMK AO2 T00260012
KFBR 250355Z AUTO 25009KT 10SM CLR 02/01 A3019 RMK AO2 T00210011
KFBR 250335Z AUTO 24007KT 10SM CLR 02/00 A3019 RMK AO2 T00240001
KFBR 250315Z AUTO 24004KT 10SM CLR 03/00 A3019 RMK AO2 T00280002
KFBR 250255Z AUTO 24005KT 10SM SCT060 03/01 A3019 RMK AO2 T00320005
KFBR 250235Z AUTO 26009KT 10SM SCT060 03/00 A3019 RMK AO2 T00310003
KFBR 250215Z AUTO 00000KT 10SM SCT033 SCT060 03/00 A3018 RMK AO2 T00340004
KFBR 250155Z AUTO 26006KT 10SM SCT035 SCT060 04/00 A3019 RMK AO2 T00350003
KFBR 250135Z AUTO 27007KT 10SM CLR 04/01 A3018 RMK AO2 T00380005
KFBR 250115Z AUTO 28007KT 10SM CLR 04/01 A3016 RMK AO2 T00380005
KFBR 250100Z AUTO 28006KT 10SM CLR 04/01 A3016 RMK AO2 T00420005
KFBR 250035Z AUTO 29009KT 10SM CLR 05/01 A3016 RMK AO2 T00460007
KFBR 250015Z AUTO 28011KT 10SM CLR 05/01 A3016 RMK AO2 T00480008
KFBR 242355Z AUTO 28009KT 10SM CLR 06/01 A3016 RMK AO2 T00580008 10119 20058
KFBR 242335Z AUTO 28011KT 10SM SCT060 07/01 A3015 RMK AO2 T00660010
KFBR 242315Z AUTO 28010KT 10SM SCT070 07/01 A3016 RMK AO2 T00710009
KFBR 242255Z AUTO 29012KT 10SM SCT049 SCT055 OVC070 08/01 A3015 RMK AO2 T00800011
KFBR 242235Z AUTO 29012KT 10SM SCT049 OVC070 08/01 A3014 RMK AO2 T00800009
KFBR 242215Z AUTO 29017G22KT 10SM BKN049 OVC070 08/01 A3014 RMK AO2 T00800007
KFBR 242155Z AUTO 31017G24KT 10SM BKN049 OVC065 09/00 A3014 RMK AO2 T00860003
KFBR 242135Z AUTO 30020G30KT 10SM BKN065 OVC080 09/00 A3012 RMK AO2 T00920000
KFBR 242115Z AUTO 30024G30KT 10SM BKN065 OVC080 10/00 A3011 RMK AO2 T00991002
KFBR 242055Z AUTO 30019G26KT 10SM SCT050 BKN075 OVC080 10/00 A3011 RMK AO2 T01031003
KFBR 242035Z AUTO 29018G26KT 10SM SCT055 OVC075 10/M01 A3010 RMK AO2 T01011008
KFBR 242015Z AUTO 27022G30KT 10SM SCT060 OVC075 11/M02 A3010 RMK AO2 T01101020
KFBR 241955Z AUTO 28023G30KT 10SM BKN060 OVC095 11/M01 A3009 RMK AO2 T01131012
KFBR 241935Z AUTO 27019G26KT 10SM OVC095 11/M01 A3009 RMK AO2 T01061011
KFBR 241915Z AUTO 28022G29KT 10SM OVC095 11/M01 A3009 RMK AO2 T01071010
KFBR 241855Z AUTO 28024G31KT 10SM BKN095 12/M01 A3009 RMK AO2 T01151009
KFBR 241835Z AUTO 27019G30KT 10SM SCT060 SCT080 11/00 A3010 RMK AO2 T01100000
KFBR 241815Z AUTO 26016G23KT 10SM SCT065 SCT070 BKN080 09/00 A3009 RMK AO2 T00910003
KFBR 241755Z AUTO 27017G25KT 10SM SCT050 BKN090 10/00 A3010 RMK AO2 T00950001 10102 20051
KFBR 241735Z AUTO 27015G23KT 10SM OVC050 09/00 A3009 RMK AO2 T00900001
KFBR 241715Z AUTO 26012G21KT 10SM OVC050 09/01 A3009 RMK AO2 T00920005
KFBR 241655Z AUTO 26013G20KT 10SM BKN050 BKN070 10/01 A3008 RMK AO2 T01010006
KFBR 241635Z AUTO 24010KT 10SM CLR 09/01 A3008 RMK AO2 T00920010
KFBR 241615Z AUTO 24012KT 10SM CLR 09/01 A3008 RMK AO2 T00870006
KFBR 241555Z AUTO 24012KT 10SM SCT100 08/00 A3007 RMK AO2 T00810004
KFBR 241535Z AUTO 23010KT 10SM SCT070 BKN100 07/00 A3007 RMK AO2 T00660001
KFBR 241515Z AUTO 24007KT 10SM SCT100 06/00 A3006 RMK AO2 T00570000
KFBR 241455Z AUTO 25009KT 10SM CLR 06/00 A3006 RMK AO2 T00580000
KFBR 241435Z AUTO 25009KT 10SM CLR 06/00 A3005 RMK AO2 T00591002
KFBR 241415Z AUTO 25009KT 10SM CLR 06/00 A3004 RMK AO2 T00631004
KFBR 241355Z AUTO 24009KT 10SM CLR 07/00 A3004 RMK AO2 T00651003
KFBR 241335Z AUTO 24008KT 10SM SCT070 06/00 A3003 RMK AO2 T00581004
KFBR 241315Z AUTO 24008KT 10SM SCT070 05/M01 A3004 RMK AO2 T00531006
KFBR 241255Z AUTO 24007KT 10SM BKN070 06/00 A3004 RMK AO2 T00551005
KFBR 241235Z AUTO 25007KT 10SM SCT070 05/M01 A3004 RMK AO2 T00531007
KFBR 241215Z AUTO 26006KT 10SM CLR 05/M01 A3004 RMK AO2 T00511010
KFBR 241155Z AUTO 27007KT 10SM CLR 06/M01 A3004 RMK AO2 T00631006 10092 20045
KFBR 241135Z AUTO 26008KT 10SM CLR 05/M01 A3004 RMK AO2 T00501006
KFBR 241115Z AUTO 27007KT 10SM CLR 06/M01 A3004 RMK AO2 T00551006
KFBR 241055Z AUTO 27006KT 10SM CLR 05/M01 A3004 RMK AO2 T00491006
KFBR 241035Z AUTO 25010KT 10SM CLR 07/00 A3004 RMK AO2 T00661004
KFBR 241015Z AUTO 25010KT 10SM CLR 07/00 A3004 RMK AO2 T00701005
KFBR 240955Z AUTO 25013KT 10SM CLR 08/00 A3004 RMK AO2 T00831003
KFBR 240935Z AUTO 24012KT 10SM CLR 09/00 A3005 RMK AO2 T00850000
KFBR 240915Z AUTO 24015G20KT 10SM CLR 09/00 A3006 RMK AO2 T00900000
KFBR 240855Z AUTO 25014G19KT 10SM CLR 09/00 A3006 RMK AO2 T00850000
KFBR 240835Z AUTO 24016G22KT 10SM SCT065 09/00 A3006 RMK AO2 T00910000
KFBR 240815Z AUTO 24017G22KT 10SM SCT065 09/00 A3008 RMK AO2 T00881001
KFBR 240755Z AUTO 24015G21KT 10SM CLR 08/M01 A3008 RMK AO2 T00821006
KFBR 240735Z AUTO 25013G20KT 10SM CLR 08/M01 A3009 RMK AO2 T00841006
KFBR 240715Z AUTO 24016G21KT 10SM CLR 08/M01 A3009 RMK AO2 T00801006
KFBR 240655Z AUTO 24014KT 10SM CLR 08/00 A3010 RMK AO2 T00781005
KFBR 240635Z AUTO 24013KT 10SM CLR 08/00 A3011 RMK AO2 T00831001
KFBR 240615Z AUTO 24010KT 10SM CLR 08/00 A3011 RMK AO2 T00830000
KFBR 240555Z AUTO 24012KT 10SM CLR 08/00 A3012 RMK AO2 T00800000 10120 20079 401600047
KFBR 240535Z AUTO 24013KT 10SM CLR 09/00 A3014 RMK AO2 T00850000
KFBR 240515Z AUTO 24014G20KT 10SM CLR 09/00 A3013 RMK AO2 T00880002
KFBR 240455Z AUTO 24014KT 10SM SCT100 09/00 A3014 RMK AO2 T00900004
KFBR 240435Z AUTO 24014G18KT 10SM SCT090 BKN110 09/01 A3015 RMK AO2 T00910008
KFBR 240415Z AUTO 24013KT 10SM SCT120 09/01 A3016 RMK AO2 T00870010
KFBR 240355Z AUTO 25012G16KT 10SM BKN110 09/01 A3016 RMK AO2 T00850012
KFBR 240335Z AUTO 26011KT 10SM BKN095 OVC120 09/01 A3017 RMK AO2 T00890013
KFBR 240315Z AUTO 25014KT 10SM SCT075 BKN095 OVC120 09/01 A3017 RMK AO2 T00900012
KFBR 240255Z AUTO 25015G21KT 10SM SCT085 SCT120 09/01 A3017 RMK AO2 T00890010
KFBR 240235Z AUTO 25016G21KT 10SM CLR 10/01 A3017 RMK AO2 T00950010
KFBR 240215Z AUTO 25016G23KT 10SM CLR 10/01 A3017 RMK AO2 T01000009
KFBR 240155Z AUTO 25017G22KT 10SM CLR 10/01 A3017 RMK AO2 T01000010
KFBR 240135Z AUTO 26015KT 10SM CLR 09/01 A3017 RMK AO2 T00910010
KFBR 240115Z AUTO 26014KT 10SM CLR 10/01 A3018 RMK AO2 T00960010
KFBR 240055Z AUTO 26014G18KT 10SM CLR 10/02 A3019 RMK AO2 T00950016
KFBR 240035Z AUTO 26014KT 10SM CLR 11/02 A3020 RMK AO2 T01050016
KFBR 240015Z AUTO 27016G21KT 10SM CLR 12/01 A3020 RMK AO2 T01150013
KFBR 232355Z AUTO 26016G22KT 10SM SCT100 SCT120 12/02 A3019 RMK AO2 T01230015 10160 20123
KFBR 232335Z AUTO 26016G21KT 10SM SCT100 BKN120 13/02 A3020 RMK AO2 T01320018
KFBR 232315Z AUTO 27013G22KT 10SM SCT120 13/01 A3021 RMK AO2 T01340011
KFBR 232255Z AUTO 27015G21KT 10SM CLR 13/01 A3022 RMK AO2 T01320013
KFBR 232235Z AUTO 26019G23KT 10SM CLR 15/01 A3022 RMK AO2 T01500011
KFBR 232215Z AUTO 26018G25KT 10SM CLR 15/01 A3022 RMK AO2 T01480010
KFBR 232155Z AUTO 26018G26KT 10SM CLR 16/01 A3023 RMK AO2 T01550012